Map

Track Data

SID SEASON NUMBER BASIN SUBBASIN NAME ISO_TIME NATURE LAT LON WMO_WIND WMO_PRES WMO_AGENCY TRACK_TYPE DIST2LAND LANDFALL IFLAG USA_AGENCY USA_ATCF_ID USA_LAT USA_LON USA_RECORD USA_STATUS USA_WIND USA_PRES USA_SSHS USA_R34_NE USA_R34_SE USA_R34_SW USA_R34_NW USA_R50_NE USA_R50_SE USA_R50_SW USA_R50_NW USA_R64_NE USA_R64_SE USA_R64_SW USA_R64_NW USA_POCI USA_ROCI USA_RMW USA_EYE TOKYO_LAT TOKYO_LON TOKYO_GRADE TOKYO_WIND TOKYO_PRES TOKYO_R50_DIR TOKYO_R50_LONG TOKYO_R50_SHORT TOKYO_R30_DIR TOKYO_R30_LONG TOKYO_R30_SHORT TOKYO_LAND CMA_LAT CMA_LON CMA_CAT CMA_WIND CMA_PRES HKO_LAT HKO_LON HKO_CAT HKO_WIND HKO_PRES NEWDELHI_LAT NEWDELHI_LON NEWDELHI_GRADE NEWDELHI_WIND NEWDELHI_PRES NEWDELHI_CI NEWDELHI_DP NEWDELHI_POCI REUNION_LAT REUNION_LON REUNION_TYPE REUNION_WIND REUNION_PRES REUNION_TNUM REUNION_CI REUNION_RMW REUNION_R34_NE REUNION_R34_SE REUNION_R34_SW REUNION_R34_NW REUNION_R50_NE REUNION_R50_SE REUNION_R50_SW REUNION_R50_NW REUNION_R64_NE REUNION_R64_SE REUNION_R64_SW REUNION_R64_NW BOM_LAT BOM_LON BOM_TYPE BOM_WIND BOM_PRES BOM_TNUM BOM_CI BOM_RMW BOM_R34_NE BOM_R34_SE BOM_R34_SW BOM_R34_NW BOM_R50_NE BOM_R50_SE BOM_R50_SW BOM_R50_NW BOM_R64_NE BOM_R64_SE BOM_R64_SW BOM_R64_NW BOM_ROCI BOM_POCI BOM_EYE BOM_POS_METHOD BOM_PRES_METHOD NADI_LAT NADI_LON NADI_CAT NADI_WIND NADI_PRES WELLINGTON_LAT WELLINGTON_LON WELLINGTON_WIND WELLINGTON_PRES DS824_LAT DS824_LON DS824_STAGE DS824_WIND DS824_PRES TD9636_LAT TD9636_LON TD9636_STAGE TD9636_WIND TD9636_PRES TD9635_LAT TD9635_LON TD9635_WIND TD9635_PRES TD9635_ROCI NEUMANN_LAT NEUMANN_LON NEUMANN_CLASS NEUMANN_WIND NEUMANN_PRES MLC_LAT MLC_LON MLC_CLASS MLC_WIND MLC_PRES USA_GUST BOM_GUST BOM_GUST_PER REUNION_GUST REUNION_GUST_PER USA_SEAHGT USA_SEARAD_NE USA_SEARAD_SE USA_SEARAD_SW USA_SEARAD_NW STORM_SPEED STORM_DIR
1990008N01172 1990 3 WP MM KORYN 1990-01-08 00:00:00 NR 1.30000 172.000 main 1649 1647 O_____________ jtwc_wp WP011990 1.30000 172.000 15 -1 13 317
1990008N01172 1990 3 WP MM KORYN 1990-01-08 03:00:00 NR 1.78253 171.558 main 1655 1647 P_____________ WP011990 1.78253 171.558 15 -1 14 318
1990008N01172 1990 3 WP MM KORYN 1990-01-08 06:00:00 NR 2.30000 171.100 main 1656 1656 O_____________ jtwc_wp WP011990 2.30000 171.100 15 -1 14 319
1990008N01172 1990 3 WP MM KORYN 1990-01-08 09:00:00 NR 2.86497 170.615 main 1669 1669 P_____________ WP011990 2.86497 170.615 15 -1 15 318
1990008N01172 1990 3 WP MM KORYN 1990-01-08 12:00:00 NR 3.40000 170.100 main 1677 1675 O_____________ jtwc_wp WP011990 3.40000 170.100 15 -1 14 313
1990008N01172 1990 3 WP MM KORYN 1990-01-08 15:00:00 NR 3.83745 169.565 main 1680 1676 P_____________ WP011990 3.83745 169.565 15 -1 14 306
1990008N01172 1990 3 WP MM KORYN 1990-01-08 18:00:00 NR 4.20000 169.000 main 1679 1673 O_____________ jtwc_wp WP011990 4.20000 169.000 15 -1 13 302
1990008N01172 1990 3 WP MM KORYN 1990-01-08 21:00:00 NR 4.53742 168.422 main 1673 1666 P_____________ WP011990 4.53742 168.422 15 -1 13 297
1990008N01172 1990 3 WP MM KORYN 1990-01-09 00:00:00 NR 4.80000 167.800 main 1670 1655 O_____________ jtwc_wp WP011990 4.80000 167.800 15 -1 14 289
1990008N01172 1990 3 WP MM KORYN 1990-01-09 03:00:00 NR 4.98001 167.100 main 1656 1635 P_____________ WP011990 4.98001 167.100 17 -1 14 282
1990008N01172 1990 3 WP MM KORYN 1990-01-09 06:00:00 NR 5.10000 166.400 main 1635 1621 O_____________ jtwc_wp WP011990 5.10000 166.400 20 -1 13 280
1990008N01172 1990 3 WP MM KORYN 1990-01-09 09:00:00 NR 5.20735 165.800 main 1621 1610 P_____________ WP011990 5.20735 165.800 20 -1 12 280
1990008N01172 1990 3 WP MM KORYN 1990-01-09 12:00:00 NR 5.30000 165.200 main 1610 1597 O_____________ jtwc_wp WP011990 5.30000 165.200 20 -1 13 279
1990008N01172 1990 3 WP MM KORYN 1990-01-09 15:00:00 NR 5.39997 164.515 main 1592 1573 P_____________ WP011990 5.39997 164.515 20 -1 14 278
1990008N01172 1990 3 WP MM KORYN 1990-01-09 18:00:00 NR 5.50000 163.800 main 1573 1538 O_____________ jtwc_wp WP011990 5.50000 163.800 20 -1 14 278
1990008N01172 1990 3 WP MM KORYN 1990-01-09 21:00:00 NR 5.59997 163.085 main 1538 1503 P_____________ WP011990 5.59997 163.085 20 -1 14 278
1990008N01172 1990 3 WP MM KORYN 1990-01-10 00:00:00 NR 5.70000 162.400 main 1503 1477 O_____________ jtwc_wp WP011990 5.70000 162.400 20 -1 13 279
1990008N01172 1990 3 WP MM KORYN 1990-01-10 03:00:00 NR 5.79989 161.785 main 1477 1441 P_____________ WP011990 5.79989 161.785 20 -1 12 280
1990008N01172 1990 3 WP MM KORYN 1990-01-10 06:00:00 NR 5.90000 161.200 main 1441 1408 O_____________ jtwc_wp WP011990 5.90000 161.200 20 -1 12 280
1990008N01172 1990 3 WP MM KORYN 1990-01-10 09:00:00 NR 5.99996 160.592 main 1408 1377 P_____________ WP011990 5.99996 160.592 20 -1 12 280
1990008N01172 1990 3 WP MM KORYN 1990-01-10 12:00:00 NR 6.10000 160.000 main 1377 1352 O_____________ jtwc_wp WP011990 6.10000 160.000 20 -1 11 280
1990008N01172 1990 3 WP MM KORYN 1990-01-10 15:00:00 NR 6.19237 159.457 main 1352 1321 P_____________ WP011990 6.19237 159.457 20 -1 11 280
1990008N01172 1990 3 WP MM KORYN 1990-01-10 18:00:00 NR 6.30000 158.900 main 1321 1292 O_____________ jtwc_wp WP011990 6.30000 158.900 20 -1 12 282
1990008N01172 1990 3 WP MM KORYN 1990-01-10 21:00:00 NR 6.45000 158.258 main 1302 1271 P_____________ WP011990 6.45000 158.258 20 -1 13 283
1990008N01172 1990 3 WP MM KORYN 1990-01-11 00:00:00 NR 6.60000 157.600 main 1271 1247 O_____________ jtwc_wp WP011990 6.60000 157.600 20 -1 13 282
1990008N01172 1990 3 WP MM KORYN 1990-01-11 03:00:00 NR 6.70740 156.992 main 1247 1225 P_____________ WP011990 6.70740 156.992 20 -1 12 280
1990008N01172 1990 3 WP MM KORYN 1990-01-11 06:00:00 NR 6.80000 156.400 main 1225 1205 O_____________ jtwc_wp WP011990 6.80000 156.400 20 -1 12 279
1990008N01172 1990 3 WP MM KORYN 1990-01-11 09:00:00 NR 6.89993 155.800 main 1205 1187 P_____________ WP011990 6.89993 155.800 20 -1 12 280
1990008N01172 1990 3 WP MM KORYN 1990-01-11 12:00:00 NR 7.00000 155.200 main 1187 1172 O_____________ jtwc_wp WP011990 7.00000 155.200 20 -1 12 280
1990008N01172 1990 3 WP MM KORYN 1990-01-11 15:00:00 NR 7.09992 154.600 main 1172 1161 P_____________ WP011990 7.09992 154.600 20 -1 12 280
1990008N01172 1990 3 WP MM KORYN 1990-01-11 18:00:00 NR 7.20000 154.000 main 1161 1152 O_____________ jtwc_wp WP011990 7.20000 154.000 20 -1 12 279
1990008N01172 1990 3 WP MM KORYN 1990-01-11 21:00:00 NR 7.29995 153.392 main 1154 1142 P_____________ WP011990 7.29995 153.392 22 -1 12 276
1990008N01172 1990 3 WP MM KORYN 1990-01-12 00:00:00 TS 7.32000 152.840 1002 tokyo main 1140 1132 OO____________ jtwc_wp WP011990 7.40000 152.800 25 -1 7.00000 153.000 2 1002 0 0 0 10 269
1990008N01172 1990 3 WP MM KORYN 1990-01-12 03:00:00 TS 7.28576 152.428 main 1132 1118 PP____________ WP011990 7.48490 152.242 27 -1 6.88746 152.800 2 1001 0 0 7 264
1990008N01172 1990 3 WP MM KORYN 1990-01-12 06:00:00 TS 7.24444 152.144 1000 tokyo main 1117 1117 OOOO__________ jtwc_wp WP011990 7.60000 151.700 30 -1 7.00000 152.500 2 1000 0 0 0 7.00000 152.500 1 29 1000 6.80000 152.500 TD 25 1000 7 291
1990008N01172 1990 3 WP MM KORYN 1990-01-12 09:00:00 TS 7.53960 151.760 main 1147 1147 PPPP__________ WP011990 7.77743 151.150 30 -1 7.46255 152.038 2 1000 0 0 7.55012 152.000 1 29 1000 7.20752 152.185 TD 25 1000 11 309
1990008N01172 1990 3 WP MM KORYN 1990-01-12 12:00:00 TS 7.91429 151.307 1000 tokyo main 1188 1188 OOOO__________ jtwc_wp WP011990 8.00000 150.600 30 -1 8.00000 151.500 2 1000 0 0 0 8.00000 151.500 1 29 1000 7.60000 151.800 TD 25 1000 11 305
1990008N01172 1990 3 WP MM KORYN 1990-01-12 15:00:00 TS 8.19182 150.834 main 1214 1210 PPPP__________ WP011990 8.22746 150.042 30 -1 8.28743 151.000 2 999 0 0 8.28743 151.000 1 29 999 7.96496 151.295 TD 27 997 11 298
1990008N01172 1990 3 WP MM KORYN 1990-01-12 18:00:00 TS 8.45000 150.300 998 tokyo main 1230 1219 OOOO__________ jtwc_wp WP011990 8.50000 149.500 30 -1 8.50000 150.500 2 998 0 0 0 8.50000 150.500 1 29 998 8.30000 150.700 TD 30 995 12 297
1990008N01172 1990 3 WP MM KORYN 1990-01-12 21:00:00 TS 8.72051 149.775 main 1239 1236 PPPP__________ WP011990 8.82741 148.992 30 -1 8.73484 150.022 2 998 0 0 8.73484 150.022 1 29 998 8.58496 150.065 TD 30 995 12 298
1990008N01172 1990 3 WP MM KORYN 1990-01-13 00:00:00 TS 9.02500 149.225 998 tokyo main 1259 1259 OOOO__________ jtwc_wp WP011990 9.20000 148.500 30 -1 9.00000 149.500 2 998 0 0 0 9.00000 149.500 1 29 998 8.90000 149.400 TD 30 995 13 299
1990008N01172 1990 3 WP MM KORYN 1990-01-13 03:00:00 TS 9.35617 148.631 main 1295 1294 PPPP__________ WP011990 9.58499 147.985 32 -1 9.28243 148.887 2 997 0 0 9.27488 148.894 1 33 996 9.28236 148.757 TD 30 995 14 303
1990008N01172 1990 3 WP MM KORYN 1990-01-13 06:00:00 TS 9.80000 148.000 35 996 tokyo main 1335 1335 OOOO__________ jtwc_wp WP011990 10.0000 147.500 35 0 9.70000 148.200 3 35 996 0 9 60 60 0 9.70000 148.200 2 38 995 9.80000 148.100 TD 30 995 17 310
1990008N01172 1990 3 WP MM KORYN 1990-01-13 09:00:00 TS 10.4270 147.313 main 1400 1400 PPPP__________ WP011990 10.4349 147.070 40 -1 10.3401 147.435 3 35 996 0 9 60 60 10.3902 147.385 2 38 995 10.5427 147.363 TD 35 992 19 315
1990008N01172 1990 3 WP MM KORYN 1990-01-13 12:00:00 TS 11.1250 146.675 35 996 tokyo main 1479 1479 OOOO__________ jtwc_wp WP011990 10.9000 146.700 45 0 11.1000 146.700 3 35 996 0 9 60 60 0 11.2000 146.600 2 38 995 11.3000 146.700 TS 40 990 18 320
1990008N01172 1990 3 WP MM KORYN 1990-01-13 15:00:00 TS 11.7874 146.141 main 1558 1558 PPPP__________ WP011990 11.3775 146.362 50 -1 11.9175 146.038 3 37 995 0 9 80 80 12.0174 145.938 2 38 995 11.8373 146.225 TS 42 987 15 325
1990008N01172 1990 3 WP MM KORYN 1990-01-13 18:00:00 TS 12.3750 145.775 40 994 tokyo main 1626 1626 OOOO__________ jtwc_wp WP011990 11.9000 146.100 55 0 12.6000 145.600 3 40 994 0 9 100 100 0 12.7000 145.500 2 38 995 12.3000 145.900 TS 45 985 12 334
1990008N01172 1990 3 WP MM KORYN 1990-01-13 21:00:00 TS 12.8324 145.613 main 1673 1673 PPPP__________ WP011990 12.5299 145.920 57 -1 12.9098 145.524 3 42 992 0 9 100 100 13.0598 145.359 2 43 992 12.8299 145.647 TS 45 985 9 347
1990008N01172 1990 3 WP MM KORYN 1990-01-14 00:00:00 TS 13.2000 145.575 45 990 tokyo main 1717 1717 OOOO__________ jtwc_wp WP011990 13.1000 145.800 60 0 13.1000 145.600 3 45 990 0 9 100 100 0 13.3000 145.400 3 48 990 13.3000 145.500 TS 45 985 7 353
1990008N01172 1990 3 WP MM KORYN 1990-01-14 03:00:00 TS 13.5419 145.524 main 1751 1751 PPPP__________ WP011990 13.4450 145.685 62 -1 13.4350 145.550 3 47 987 0 9 200 200 13.6575 145.442 3 48 987 13.6300 145.420 TS 47 982 7 354
1990008N01172 1990 3 WP MM KORYN 1990-01-14 06:00:00 TS 13.8500 145.500 50 985 tokyo main 1796 1796 OOOO__________ jtwc_wp WP011990 13.7000 145.600 65 1 13.8000 145.500 4 50 985 0 9 300 300 0 14.0000 145.500 3 48 985 13.9000 145.400 STS 50 980 6 354
1990008N01172 1990 3 WP MM KORYN 1990-01-14 09:00:00 TS 14.1594 145.473 main 1830 1830 PPPP__________ WP011990 14.0000 145.520 65 -1 14.1650 145.485 4 52 982 0 9 300 300 14.2650 145.500 3 53 982 14.2075 145.385 STS 55 975 6 359
1990008N01172 1990 3 WP MM KORYN 1990-01-14 12:00:00 TS 14.4500 145.475 55 980 tokyo main 1863 1863 OOOO__________ jtwc_wp WP011990 14.3000 145.500 65 1 14.5000 145.500 4 55 980 9 30 30 9 300 300 0 14.5000 145.500 3 58 980 14.5000 145.400 STS 60 970 6 3
1990008N01172 1990 3 WP MM KORYN 1990-01-14 15:00:00 TS 14.7181 145.521 main 1885 1885 PPPP__________ WP011990 14.6000 145.585 67 -1 14.7650 145.535 4 55 980 9 30 30 9 300 300 14.7500 145.535 3 63 975 14.7575 145.428 STS 57 972 5 13
1990008N01172 1990 3 WP MM KORYN 1990-01-14 18:00:00 TS 14.9750 145.600 55 980 tokyo main 1918 1918 OOOO__________ jtwc_wp WP011990 14.9000 145.700 70 1 15.0000 145.600 4 55 980 9 30 30 9 300 300 0 15.0000 145.600 4 68 970 15.0000 145.500 STS 55 975 5 18
1990008N01172 1990 3 WP MM KORYN 1990-01-14 21:00:00 TS 15.2338 145.693 main 1940 1940 PPPP__________ WP011990 15.2075 145.758 72 -1 15.2425 145.685 4 55 980 9 30 30 9 275 275 15.2350 145.685 4 68 970 15.2500 145.642 STS 52 977 6 20
1990008N01172 1990 3 WP MM KORYN 1990-01-15 00:00:00 TS 15.5000 145.800 55 980 tokyo main 1973 1973 OOOO__________ jtwc_wp WP011990 15.5000 145.800 75 1 15.5000 145.800 4 55 980 9 30 30 9 250 250 0 15.5000 145.800 4 68 970 15.5000 145.800 STS 50 980 6 22
1990008N01172 1990 3 WP MM KORYN 1990-01-15 03:00:00 TS 15.7913 145.920 main 2006 2006 PPPP__________ WP011990 15.7650 145.857 72 -1 15.8000 145.957 4 55 980 9 30 30 9 212 212 15.8575 145.957 4 63 975 15.7425 145.908 STS 50 980 6 21
1990008N01172 1990 3 WP MM KORYN 1990-01-15 06:00:00 TS 16.0750 146.025 55 980 tokyo main 2039 2039 OOOO__________ jtwc_wp WP011990 16.0000 145.900 70 1 16.1000 146.100 4 55 980 9 30 30 9 175 175 0 16.2000 146.100 3 58 980 16.0000 146.000 STS 50 980 5 18
1990008N01172 1990 3 WP MM KORYN 1990-01-15 09:00:00 TS 16.3125 146.090 main 2061 2061 PPPP__________ WP011990 16.1850 145.900 67 -1 16.3575 146.173 4 55 980 9 30 30 9 175 175 16.4150 146.173 3 58 980 16.2925 146.115 STS 47 982 5 11
1990008N01172 1990 3 WP MM KORYN 1990-01-15 12:00:00 TS 16.5500 146.125 55 980 tokyo main 2095 2084 OOOO__________ jtwc_wp WP011990 16.4000 145.900 65 1 16.6000 146.200 4 55 980 9 30 30 9 175 175 0 16.6000 146.200 3 58 980 16.6000 146.200 TS 45 985 5 5
1990008N01172 1990 3 WP MM KORYN 1990-01-15 15:00:00 TS 16.8000 146.139 main 2113 2081 PPPP__________ WP011990 16.6900 145.943 65 -1 16.7975 146.193 4 55 980 9 30 30 9 162 162 16.8275 146.208 3 53 982 16.8850 146.215 TS 45 985 6 0
1990008N01172 1990 3 WP MM KORYN 1990-01-15 18:00:00 TS 17.1250 146.150 55 980 tokyo main 2083 2041 OOOO__________ jtwc_wp WP011990 17.1000 146.000 65 1 17.1000 146.200 4 55 980 9 30 30 9 150 150 0 17.1000 146.200 3 48 985 17.2000 146.200 TS 45 985 7 0
1990008N01172 1990 3 WP MM KORYN 1990-01-15 21:00:00 TS 17.5412 146.158 main 2041 1976 PPPP__________ WP011990 17.6399 146.013 62 -1 17.6325 146.255 4 52 982 9 9 137 137 17.3675 146.185 3 48 985 17.5250 146.178 TS 45 985 10 4
1990008N01172 1990 3 WP MM KORYN 1990-01-16 00:00:00 TS 18.1000 146.225 50 985 tokyo main 1976 1908 OOOO__________ jtwc_wp WP011990 18.3000 146.100 60 0 18.3000 146.400 4 50 985 0 9 125 125 0 17.8000 146.200 3 48 985 18.0000 146.200 TS 45 985 13 9
1990008N01172 1990 3 WP MM KORYN 1990-01-16 03:00:00 TS 18.8249 146.380 main 1908 1830 PPPP__________ WP011990 19.0497 146.310 57 -1 18.9849 146.648 4 50 985 0 9 212 137 18.5175 146.263 3 48 987 18.7474 146.298 TS 45 987 16 15
1990008N01172 1990 3 WP MM KORYN 1990-01-16 06:00:00 TS 19.6250 146.650 50 985 tokyo main 1834 1772 OOOO__________ jtwc_wp WP011990 19.8000 146.700 55 0 19.7000 147.000 4 50 985 0 1 300 150 0 19.4000 146.400 3 48 990 19.6000 146.500 TS 45 990 17 21
1990008N01172 1990 3 WP MM KORYN 1990-01-16 09:00:00 TS 20.3622 146.997 main 1761 1710 PPPP__________ WP011990 20.4148 147.268 50 -1 20.3999 147.413 4 47 987 0 1 300 150 20.2996 146.561 3 48 990 20.3344 146.746 TS 42 990 17 28
1990008N01172 1990 3 WP MM KORYN 1990-01-16 12:00:00 TS 21.1000 147.500 45 990 tokyo main 1710 1666 OOOO__________ jtwc_wp WP011990 21.0000 148.000 45 0 21.1000 147.900 3 45 990 0 2 300 150 0 21.2000 146.900 3 48 990 21.1000 147.200 TS 40 990 19 35
1990008N01172 1990 3 WP MM KORYN 1990-01-16 15:00:00 TS 21.8712 148.133 main 1656 1626 PPPP__________ WP011990 21.6496 148.798 42 -1 21.7916 148.369 3 40 993 0 2 250 125 22.0437 147.436 3 43 992 21.9997 147.930 TS 37 990 20 42
1990008N01172 1990 3 WP MM KORYN 1990-01-16 18:00:00 TS 22.6067 148.980 35 996 tokyo main 1632 1619 OOOO__________ jtwc_wp WP011990 22.3000 149.700 40 0 22.5000 149.000 3 35 996 0 2 200 100 0 22.8000 148.300 2 38 995 22.9000 148.900 TS 35 990 22 51
1990008N01172 1990 3 WP MM KORYN 1990-01-16 21:00:00 TS 23.2284 149.976 main 1628 1619 PPPP__________ WP011990 22.8837 150.627 40 -1 23.2017 149.787 3 996 0 2 23.3693 149.497 2 38 995 23.6893 150.013 TS 37 990 24 58
1990008N01172 1990 3 WP MM KORYN 1990-01-17 00:00:00 MX 23.8769 151.231 996 tokyo main 1634 1634 OOOO__________ jtwc_wp WP011990 23.5000 151.700 40 0 24.0000 151.000 6 996 0 0 0 24.0000 151.000 2 38 995 24.4000 151.200 TS 40 990 29 61
1990008N01172 1990 3 WP MM KORYN 1990-01-17 03:00:00 MX 24.6068 152.740 main 1670 1669 PPP___________ WP011990 24.1864 152.882 40 -1 24.8123 152.787 6 994 0 0 24.8218 152.552 2 38 995 TS 36 60
1990008N01172 1990 3 WP MM KORYN 1990-01-17 06:00:00 MX 25.6364 154.645 992 tokyo main 1723 1723 OOO___________ jtwc_wp WP011990 25.0000 154.400 40 0 26.0000 155.000 6 992 0 0 0 26.0000 154.500 2 38 995 45 56
1990008N01172 1990 3 WP MM KORYN 1990-01-17 09:00:00 MX 27.1199 156.857 main 1790 1790 PPP___________ WP011990 25.9117 156.289 40 -1 28.0700 157.333 6 994 0 0 27.6362 157.041 2 33 995 52 55
1990008N01172 1990 3 WP MM KORYN 1990-01-17 12:00:00 MX 28.6429 159.443 996 tokyo main 1906 1906 OOO___________ jtwc_wp WP011990 27.0000 158.700 40 0 30.0000 160.000 6 996 0 0 0 29.5000 160.000 1 29 995 54 63
1990008N01172 1990 3 WP MM KORYN 1990-01-17 15:00:00 ET 29.5682 162.304 main 2091 2091 PP____________ WP011990 28.2717 161.668 42 -1 30.8647 162.940 6 996 0 0 1 55 73
1990008N01172 1990 3 WP MM KORYN 1990-01-17 18:00:00 ET 30.3000 165.500 996 tokyo main 2185 OO____________ jtwc_wp WP011990 29.6000 165.000 XX 45 -5 31.0000 166.000 6 996 0 0 0 57 75

Digital Typhoon Data and Search

About IBTrACS Database

This database is a web-friendly format of International Best Track Archive for Climate Stewardship (IBTrACS), a global best track data archive curated by NOAA dating back to 1842.

Updated: 2021-10-27